createdAt,value
2022-11-24T00:00:45.797Z,99.9
2022-11-24T00:02:47.352Z,99.9
2022-11-24T00:04:51.880Z,99.9
2022-11-24T00:06:53.197Z,99.9
2022-11-24T00:08:54.574Z,99.9
2022-11-24T00:12:57.394Z,99.9
2022-11-24T00:14:58.697Z,99.9
2022-11-24T00:17:00.149Z,99.9
2022-11-24T00:19:04.737Z,99.9
2022-11-24T00:21:06.066Z,99.9
2022-11-24T00:23:07.473Z,99.9
2022-11-24T00:25:08.850Z,99.9
2022-11-24T00:27:10.216Z,99.9
2022-11-24T00:29:11.556Z,99.9
2022-11-24T00:31:16.780Z,99.9
2022-11-24T00:35:18.981Z,99.9
2022-11-24T00:37:20.355Z,99.9
2022-11-24T00:39:21.731Z,99.9
2022-11-24T00:41:23.175Z,99.9
2022-11-24T00:43:24.475Z,99.9
2022-11-24T00:45:25.855Z,99.9
2022-11-24T00:47:30.499Z,99.9
2022-11-24T00:49:31.903Z,99.9
2022-11-24T00:51:33.208Z,99.9
2022-11-24T00:57:59.098Z,99.9
2022-11-24T01:00:03.793Z,99.9
2022-11-24T01:02:05.210Z,99.9
2022-11-24T01:04:06.561Z,99.9
2022-11-24T01:06:07.895Z,99.9
2022-11-24T01:08:09.282Z,99.9
2022-11-24T01:10:10.581Z,99.9
2022-11-24T01:12:11.997Z,99.9
2022-11-24T01:14:16.701Z,99.9
2022-11-24T01:18:19.361Z,99.9
2022-11-24T01:20:20.723Z,99.9
2022-11-24T01:24:23.445Z,99.9
2022-11-24T01:26:24.890Z,99.9
2022-11-24T01:30:31.273Z,99.9
2022-11-24T01:32:32.580Z,99.9
2022-11-24T01:34:34.311Z,99.9
2022-11-24T01:36:35.271Z,99.9
2022-11-24T01:38:36.628Z,99.9
2022-11-24T01:42:42.714Z,99.9
2022-11-24T01:44:44.206Z,99.9
2022-11-24T01:46:45.402Z,99.9
2022-11-24T01:49:49.133Z,99.9
2022-11-24T01:51:50.476Z,99.9
2022-11-24T01:53:51.842Z,99.9
2022-11-24T01:55:56.516Z,99.9
2022-11-24T01:57:57.875Z,99.9
2022-11-24T01:59:59.260Z,99.9
2022-11-24T02:02:00.658Z,99.9
2022-11-24T02:04:01.972Z,99.9
2022-11-24T02:06:03.362Z,99.9
2022-11-24T02:08:04.753Z,99.9
2022-11-24T02:10:09.473Z,99.9
2022-11-24T02:12:10.797Z,99.9
2022-11-24T02:14:12.237Z,99.9
2022-11-24T02:16:13.670Z,99.9
2022-11-24T02:18:14.894Z,99.9
2022-11-24T02:20:16.280Z,99.9
2022-11-24T02:22:17.660Z,99.9
2022-11-24T02:24:22.302Z,99.9
2022-11-24T02:26:23.732Z,99.9
2022-11-24T02:28:25.148Z,99.9
2022-11-24T02:30:26.514Z,99.9
2022-11-24T02:32:27.864Z,99.9
2022-11-24T02:34:29.255Z,99.9
2022-11-24T02:36:30.613Z,99.9
2022-11-24T02:38:35.307Z,99.9
2022-11-24T02:40:38.266Z,99.9
2022-11-24T02:42:39.640Z,99.9
2022-11-24T02:45:43.308Z,99.9
2022-11-24T02:47:44.675Z,99.9
2022-11-24T02:55:53.471Z,99.9
2022-11-24T02:57:54.849Z,99.9
2022-11-24T02:59:56.292Z,99.9
2022-11-24T03:01:57.742Z,99.9
2022-11-24T03:03:58.993Z,99.9
2022-11-24T03:06:03.689Z,99.9
2022-11-24T03:08:05.076Z,99.9
2022-11-24T03:10:06.419Z,99.9
2022-11-24T03:12:07.921Z,99.9
2022-11-24T03:14:09.167Z,99.9
2022-11-24T03:16:10.611Z,99.9
2022-11-24T03:20:16.578Z,99.9
2022-11-24T03:22:17.936Z,99.9
2022-11-24T03:24:19.358Z,99.9
2022-11-24T03:26:20.655Z,99.9
2022-11-24T03:30:23.430Z,99.9
2022-11-24T03:32:24.745Z,99.9
2022-11-24T03:34:29.456Z,99.9
2022-11-24T03:36:30.789Z,99.9
2022-11-24T03:38:32.163Z,99.9
2022-11-24T03:39:34.493Z,99.9
2022-11-24T03:47:43.290Z,99.9
2022-11-24T03:49:44.685Z,99.9
2022-11-24T03:51:46.049Z,99.9
2022-11-24T03:53:47.417Z,99.9
2022-11-24T03:55:48.795Z,99.9
2022-11-24T03:57:50.167Z,99.9
2022-11-24T03:59:51.629Z,99.9
2022-11-24T04:01:56.327Z,99.9
2022-11-24T04:03:57.652Z,99.9
2022-11-24T04:05:59.050Z,99.9
2022-11-24T04:08:00.395Z,99.9
2022-11-24T04:10:01.768Z,99.9
2022-11-24T04:14:09.121Z,99.9
2022-11-24T04:16:09.223Z,99.9
2022-11-24T04:22:13.297Z,99.9
2022-11-24T04:24:14.672Z,99.9
2022-11-24T04:28:17.356Z,99.9
2022-11-24T04:30:22.052Z,99.9
2022-11-24T04:32:23.388Z,99.9
2022-11-24T04:34:24.797Z,99.9
2022-11-24T04:36:47.581Z,99.9
2022-11-24T04:39:23.588Z,99.9
2022-11-24T04:42:54.985Z,99.9
2022-11-24T04:44:56.325Z,99.9
2022-11-24T04:46:57.744Z,99.9
2022-11-24T04:48:59.076Z,99.9
2022-11-24T04:51:00.471Z,99.9
2022-11-24T04:53:01.829Z,99.9
2022-11-24T04:55:03.191Z,99.9
2022-11-24T04:57:07.874Z,99.9
2022-11-24T04:59:09.269Z,99.9
2022-11-24T05:01:10.601Z,99.9
2022-11-24T05:03:11.945Z,99.9
2022-11-24T05:05:13.491Z,99.9
2022-11-24T05:07:18.272Z,99.9
2022-11-24T05:09:16.119Z,99.9
2022-11-24T05:11:20.740Z,99.9
2022-11-24T05:13:22.096Z,99.9
2022-11-24T05:15:23.484Z,99.9
2022-11-24T05:17:24.832Z,99.9
2022-11-24T05:19:29.874Z,99.9
2022-11-24T05:21:27.561Z,99.9
2022-11-24T05:23:28.937Z,99.9
2022-11-24T05:25:33.680Z,99.9
2022-11-24T05:27:35.048Z,99.9
2022-11-24T05:29:36.367Z,99.9
2022-11-24T05:32:40.099Z,99.9
2022-11-24T05:34:41.456Z,99.9
2022-11-24T05:38:47.486Z,99.9
2022-11-24T05:40:48.860Z,99.9
2022-11-24T05:48:54.309Z,99.9
2022-11-24T05:50:55.813Z,99.9
2022-11-24T05:53:00.365Z,99.9
2022-11-24T05:55:01.722Z,99.9
2022-11-24T05:57:03.097Z,99.9
2022-11-24T05:59:09.585Z,99.9
2022-11-24T06:01:05.983Z,99.9
2022-11-24T06:03:07.373Z,99.9
2022-11-24T06:05:08.588Z,99.9
2022-11-24T06:07:13.351Z,99.9
2022-11-24T06:09:14.639Z,99.9
2022-11-24T06:11:16.159Z,99.9
2022-11-24T06:13:17.493Z,99.9
2022-11-24T06:15:18.767Z,99.9
2022-11-24T06:17:20.142Z,99.9
2022-11-24T06:19:21.541Z,99.9
2022-11-24T06:21:26.192Z,99.9
2022-11-24T06:23:27.557Z,99.9
2022-11-24T06:25:28.917Z,99.9
2022-11-24T06:26:31.264Z,99.9
2022-11-24T06:28:32.620Z,99.9
2022-11-24T06:30:33.996Z,99.9
2022-11-24T06:34:40.010Z,99.9
2022-11-24T06:36:41.403Z,99.9
2022-11-24T06:38:42.736Z,99.9
2022-11-24T06:40:44.116Z,99.9
2022-11-24T06:42:45.474Z,99.9
2022-11-24T06:44:46.860Z,99.9
2022-11-24T06:46:48.333Z,99.9
2022-11-24T06:48:52.889Z,99.9
2022-11-24T06:50:54.270Z,99.9
2022-11-24T06:52:55.671Z,99.9
2022-11-24T06:54:57.118Z,99.9
2022-11-24T06:56:58.502Z,99.9
2022-11-24T06:58:59.861Z,99.9
2022-11-24T07:01:01.280Z,99.9
2022-11-24T07:03:05.912Z,99.9
2022-11-24T07:05:07.263Z,99.9
2022-11-24T07:07:08.720Z,99.9
2022-11-24T07:09:10.012Z,99.9
2022-11-24T07:11:11.379Z,99.9
2022-11-24T07:17:18.739Z,99.9
2022-11-24T07:19:24.574Z,99.9
2022-11-24T07:22:23.840Z,99.9
2022-11-24T07:24:25.223Z,99.9
2022-11-24T07:26:26.548Z,99.9
2022-11-24T07:28:27.916Z,99.9
2022-11-24T07:30:32.581Z,99.9
2022-11-24T07:32:33.950Z,99.9
2022-11-24T07:34:35.552Z,99.9
2022-11-24T07:36:36.677Z,99.9
2022-11-24T07:38:38.053Z,99.9
2022-11-24T07:40:39.395Z,99.9
2022-11-24T07:42:40.798Z,99.9
2022-11-24T07:44:45.466Z,99.9
2022-11-24T07:46:46.827Z,99.9
2022-11-24T07:48:48.346Z,99.9
2022-11-24T07:50:55.280Z,99.9
2022-11-24T07:52:50.929Z,99.9
2022-11-24T07:54:52.262Z,99.9
2022-11-24T07:56:53.636Z,99.9
2022-11-24T07:58:58.321Z,99.9
2022-11-24T08:00:59.673Z,99.9
2022-11-24T08:03:01.035Z,99.9
2022-11-24T08:05:02.395Z,99.9
2022-11-24T08:07:03.757Z,99.9
2022-11-24T08:09:05.111Z,99.9
2022-11-24T08:11:06.508Z,99.9
2022-11-24T08:13:11.164Z,99.9
2022-11-24T08:15:12.521Z,99.9
2022-11-24T08:17:13.971Z,99.9
2022-11-24T08:19:40.792Z,99.9
2022-11-24T08:21:42.171Z,99.9
2022-11-24T08:25:50.698Z,99.9
2022-11-24T08:27:49.584Z,99.9
2022-11-24T08:35:56.569Z,99.9
2022-11-24T08:38:03.176Z,99.9
2022-11-24T08:42:03.963Z,99.9
2022-11-24T08:44:05.330Z,99.9
2022-11-24T08:46:06.724Z,99.9
2022-11-24T08:48:08.051Z,99.9
2022-11-24T08:50:09.409Z,99.9
2022-11-24T08:52:10.819Z,99.9
2022-11-24T08:54:15.449Z,99.9
2022-11-24T08:56:16.782Z,99.9
2022-11-24T08:58:18.175Z,99.9
2022-11-24T09:00:19.527Z,99.9
2022-11-24T09:02:20.941Z,99.9
2022-11-24T09:04:22.341Z,99.9
2022-11-24T09:06:23.889Z,99.9
2022-11-24T09:08:28.318Z,99.9
2022-11-24T09:10:29.709Z,99.9
2022-11-24T09:12:31.063Z,99.9
2022-11-24T09:15:34.785Z,99.9
2022-11-24T09:17:36.161Z,99.9
2022-11-24T09:19:37.536Z,99.9
2022-11-24T09:21:42.188Z,99.9
2022-11-24T09:23:43.544Z,99.9
2022-11-24T09:25:44.909Z,99.9
2022-11-24T09:27:46.306Z,99.9
2022-11-24T09:29:47.659Z,99.9
2022-11-24T09:31:49.023Z,99.9
2022-11-24T09:33:50.302Z,99.9
2022-11-24T09:37:56.325Z,99.9
2022-11-24T09:41:59.105Z,99.9
2022-11-24T09:44:00.486Z,99.9
2022-11-24T09:46:06.348Z,99.9
2022-11-24T09:48:03.267Z,99.9
2022-11-24T09:50:07.909Z,99.9
2022-11-24T09:52:09.281Z,99.9
2022-11-24T09:54:10.646Z,99.9
2022-11-24T09:56:12.036Z,99.9
2022-11-24T09:58:13.423Z,99.9
2022-11-24T10:00:14.799Z,99.9
2022-11-24T10:02:16.157Z,99.9
2022-11-24T10:04:20.907Z,99.9
2022-11-24T10:06:22.257Z,99.9
2022-11-24T10:11:27.354Z,99.9
2022-11-24T10:13:28.735Z,99.9
2022-11-24T10:15:30.284Z,99.9
2022-11-24T10:17:34.792Z,99.9
2022-11-24T10:19:37.584Z,99.9
2022-11-24T10:21:37.518Z,99.9
2022-11-24T10:23:40.102Z,99.9
2022-11-24T10:25:40.327Z,99.9
2022-11-24T10:27:41.609Z,99.9
2022-11-24T10:31:47.705Z,99.9
2022-11-24T10:33:49.087Z,99.9
2022-11-24T10:35:50.434Z,99.9
2022-11-24T10:39:58.528Z,99.9
2022-11-24T10:41:54.560Z,99.9
2022-11-24T10:48:02.013Z,99.9
2022-11-24T10:54:06.157Z,99.9
2022-11-24T10:56:07.556Z,99.9
2022-11-24T10:58:08.918Z,99.9
2022-11-24T11:00:13.637Z,99.9
2022-11-24T11:02:15.050Z,99.9
2022-11-24T11:04:16.353Z,99.9
2022-11-24T11:05:18.694Z,99.9
2022-11-24T11:09:21.458Z,99.9
2022-11-24T11:13:27.556Z,99.9
2022-11-24T11:17:30.267Z,99.9
2022-11-24T11:19:48.543Z,99.9
2022-11-24T11:37:47.348Z,99.9
2022-11-24T11:39:49.181Z,99.9
2022-11-24T11:41:53.420Z,99.9
2022-11-24T11:43:54.782Z,99.9
2022-11-24T11:45:56.369Z,99.9
2022-11-24T11:47:57.553Z,99.9
2022-11-24T11:49:58.974Z,99.9
2022-11-24T11:52:00.315Z,99.9
2022-11-24T11:54:01.783Z,99.9
2022-11-24T11:56:06.391Z,99.9
2022-11-24T11:58:07.751Z,99.9
2022-11-24T12:00:09.102Z,99.9
2022-11-24T12:02:29.816Z,99.9
2022-11-24T12:04:31.269Z,99.9
2022-11-24T12:06:32.440Z,99.9
2022-11-24T12:10:38.508Z,99.9
2022-11-24T12:12:39.887Z,99.9
2022-11-24T12:14:41.431Z,99.9
2022-11-24T12:18:57.203Z,99.9
2022-11-24T12:20:45.391Z,99.9
2022-11-24T12:22:50.109Z,99.9
2022-11-24T12:24:51.517Z,99.9
2022-11-24T12:28:54.243Z,99.9
2022-11-24T12:30:55.642Z,99.9
2022-11-24T12:32:57.005Z,99.9
2022-11-24T12:34:58.359Z,99.9
2022-11-24T12:37:03.080Z,99.9
2022-11-24T12:39:04.446Z,99.9
2022-11-24T12:41:33.779Z,99.9
2022-11-24T12:43:07.179Z,99.9
2022-11-24T12:45:08.599Z,99.9
2022-11-24T12:47:10.034Z,99.9
2022-11-24T12:49:11.356Z,99.9
2022-11-24T12:51:16.031Z,99.9
2022-11-24T12:53:17.436Z,99.9
2022-11-24T12:55:18.781Z,99.9
2022-11-24T12:56:21.130Z,99.9
2022-11-24T13:00:23.866Z,99.9
2022-11-24T13:02:25.398Z,99.9
2022-11-24T13:04:29.948Z,99.9
2022-11-24T13:06:31.400Z,99.9
2022-11-24T13:08:32.730Z,99.9
2022-11-24T13:12:35.454Z,99.9
2022-11-24T13:14:37.280Z,99.9
2022-11-24T13:16:48.592Z,99.9
2022-11-24T13:18:43.017Z,99.9
2022-11-24T13:20:44.301Z,99.9
2022-11-24T13:22:45.690Z,99.9
2022-11-24T13:24:47.070Z,99.9
2022-11-24T13:26:48.494Z,99.9
2022-11-24T13:34:57.309Z,99.9
2022-11-24T13:43:02.872Z,99.9
2022-11-24T13:45:04.218Z,99.9
2022-11-24T13:47:08.934Z,99.9
2022-11-24T13:49:10.296Z,99.9
2022-11-24T13:51:11.647Z,99.9
2022-11-24T13:52:13.977Z,99.9
2022-11-24T13:54:15.418Z,99.9
2022-11-24T13:56:16.784Z,99.9
2022-11-24T13:58:18.146Z,99.9
2022-11-24T14:00:22.801Z,99.9
2022-11-24T14:02:24.206Z,99.9
2022-11-24T14:04:31.097Z,99.9
2022-11-24T14:06:26.954Z,99.9
2022-11-24T14:10:29.709Z,99.7
2022-11-24T14:12:31.104Z,99.7
2022-11-24T14:14:36.082Z,99.2
2022-11-24T14:16:37.223Z,98.9
2022-11-24T14:24:44.676Z,98.3
2022-11-24T14:26:45.642Z,98.4
2022-11-24T14:32:53.110Z,98.9
2022-11-24T14:34:54.719Z,98.8
2022-11-24T14:36:55.893Z,98.8
2022-11-24T14:38:57.267Z,98.8
2022-11-24T14:40:58.661Z,98.7
2022-11-24T14:43:03.337Z,99
2022-11-24T14:45:04.717Z,99.3
2022-11-24T14:47:06.187Z,99.4
2022-11-24T14:48:08.435Z,99.6
2022-11-24T14:56:17.303Z,99.9
2022-11-24T15:00:20.078Z,99.9
2022-11-24T15:05:01.020Z,99.9
2022-11-24T15:06:24.195Z,99.9
2022-11-24T15:08:25.584Z,99.9
2022-11-24T15:10:33.562Z,99.9
2022-11-24T15:12:31.691Z,99.9
2022-11-24T15:14:33.415Z,99.9
2022-11-24T15:16:34.467Z,99.9
2022-11-24T15:18:35.788Z,99.9
2022-11-24T15:20:37.188Z,99.9
2022-11-24T15:22:38.592Z,99.9
2022-11-24T15:24:43.246Z,99.9
2022-11-24T15:26:44.610Z,99.9
2022-11-24T15:28:45.991Z,99.9
2022-11-24T15:30:47.363Z,99.9
2022-11-24T15:32:48.766Z,99.9
2022-11-24T15:34:50.264Z,99.9
2022-11-24T15:36:51.511Z,99.9
2022-11-24T15:38:56.171Z,99.9
2022-11-24T15:40:57.566Z,99.9
2022-11-24T15:43:03.472Z,99.9
2022-11-24T15:45:22.111Z,99.9
2022-11-24T15:49:24.856Z,99.9
2022-11-24T15:55:32.258Z,99.9
2022-11-24T15:57:33.615Z,99.9
2022-11-24T15:59:35.006Z,99.9
2022-11-24T16:01:36.607Z,99.9
2022-11-24T16:05:42.420Z,99.9
2022-11-24T16:09:45.138Z,99.9
2022-11-24T16:11:46.540Z,99.9
2022-11-24T16:13:52.303Z,99.9
2022-11-24T16:17:50.607Z,99.9
2022-11-24T16:20:00.233Z,99.9
2022-11-24T16:21:56.654Z,99.9
2022-11-24T16:23:58.052Z,99.9
2022-11-24T16:28:00.748Z,99.9
2022-11-24T16:30:02.206Z,99.9
2022-11-24T16:32:03.595Z,99.9
2022-11-24T16:34:08.184Z,99.9
2022-11-24T16:36:09.561Z,99.9
2022-11-24T16:38:10.935Z,99.9
2022-11-24T16:39:13.268Z,99.9
2022-11-24T16:41:14.605Z,99.9
2022-11-24T16:43:15.986Z,99.9
2022-11-24T16:45:17.334Z,99.9
2022-11-24T16:47:22.029Z,99.9
2022-11-24T16:49:23.403Z,99.9
2022-11-24T16:51:26.151Z,99.9
2022-11-24T16:53:26.141Z,99.9
2022-11-24T16:55:27.513Z,99.9
2022-11-24T16:57:28.887Z,99.9
2022-11-24T16:59:30.246Z,99.9
2022-11-24T17:01:35.108Z,99.9
2022-11-24T17:03:36.303Z,99.9
2022-11-24T17:05:37.705Z,99.9
2022-11-24T17:07:39.115Z,99.9
2022-11-24T17:09:40.922Z,99.9
2022-11-24T17:11:41.979Z,99.9
2022-11-24T17:13:43.177Z,99.9
2022-11-24T17:15:53.809Z,99.9
2022-11-24T17:18:16.222Z,99.9
2022-11-24T17:25:54.731Z,99.9
2022-11-24T17:27:56.136Z,99.9
2022-11-24T17:30:00.792Z,99.9
2022-11-24T17:32:02.339Z,99.9
2022-11-24T17:34:03.522Z,99.9
2022-11-24T17:35:05.849Z,99.9
2022-11-24T17:37:07.225Z,99.9
2022-11-24T17:39:08.629Z,99.9
2022-11-24T17:43:14.637Z,99.9
2022-11-24T17:47:17.388Z,99.9
2022-11-24T17:49:18.747Z,99.9
2022-11-24T17:51:20.119Z,99.9
2022-11-24T17:53:21.485Z,99.9
2022-11-24T17:55:22.853Z,99.9
2022-11-24T17:57:27.549Z,99.9
2022-11-24T17:59:28.886Z,99.9
2022-11-24T18:01:30.346Z,99.9
2022-11-24T18:03:31.623Z,99.9
2022-11-24T18:05:32.983Z,99.9
2022-11-24T18:07:34.420Z,99.9
2022-11-24T18:09:35.747Z,99.9
2022-11-24T18:11:40.376Z,99.9
2022-11-24T18:13:56.435Z,99.9
2022-11-24T18:15:43.135Z,99.9
2022-11-24T18:17:44.658Z,99.9
2022-11-24T18:19:45.901Z,99.9
2022-11-24T18:21:47.278Z,99.9
2022-11-24T18:23:48.664Z,99.9
2022-11-24T18:27:54.852Z,99.9
2022-11-24T18:29:56.377Z,99.9
2022-11-24T18:32:59.878Z,99.9
2022-11-24T18:35:01.245Z,99.9
2022-11-24T18:37:02.640Z,99.9
2022-11-24T18:39:07.314Z,99.9
2022-11-24T18:41:08.690Z,99.9
2022-11-24T18:43:10.077Z,99.9
2022-11-24T18:45:11.479Z,99.9
2022-11-24T18:47:12.761Z,99.9
2022-11-24T18:49:14.136Z,99.9
2022-11-24T18:51:15.506Z,99.9
2022-11-24T18:53:20.209Z,99.9
2022-11-24T18:55:21.566Z,99.9
2022-11-24T18:59:24.260Z,99.9
2022-11-24T19:01:25.721Z,99.9
2022-11-24T19:03:27.006Z,99.9
2022-11-24T19:05:28.400Z,99.9
2022-11-24T19:07:33.124Z,99.9
2022-11-24T19:09:34.430Z,99.9
2022-11-24T19:11:35.787Z,99.9
2022-11-24T19:13:37.145Z,99.9
2022-11-24T19:15:38.535Z,99.9
2022-11-24T19:17:39.920Z,99.9
2022-11-24T19:21:45.980Z,99.9
2022-11-24T19:23:47.318Z,99.9
2022-11-24T19:25:48.695Z,99.9
2022-11-24T19:30:12.969Z,99.9
2022-11-24T19:32:14.415Z,99.9
2022-11-24T19:40:23.155Z,99.9
2022-11-24T19:42:24.455Z,99.9
2022-11-24T19:44:25.941Z,99.9
2022-11-24T19:46:27.333Z,99.9
2022-11-24T19:48:31.887Z,99.9
2022-11-24T19:50:33.262Z,99.9
2022-11-24T19:52:34.643Z,99.9
2022-11-24T19:54:36.301Z,99.9
2022-11-24T19:56:37.375Z,99.9
2022-11-24T19:58:38.737Z,99.9
2022-11-24T20:00:40.108Z,99.9
2022-11-24T20:02:44.858Z,99.9
2022-11-24T20:04:46.255Z,99.9
2022-11-24T20:06:47.538Z,99.9
2022-11-24T20:08:48.854Z,99.9
2022-11-24T20:12:53.114Z,99.9
2022-11-24T20:14:54.438Z,99.9
2022-11-24T20:16:59.156Z,99.9
2022-11-24T20:21:01.825Z,99.9
2022-11-24T20:22:04.201Z,99.9
2022-11-24T20:24:05.519Z,99.9
2022-11-24T20:26:06.915Z,99.9
2022-11-24T20:28:08.253Z,99.9
2022-11-24T20:30:12.916Z,99.9
2022-11-24T20:32:14.283Z,99.9
2022-11-24T20:34:15.610Z,99.9
2022-11-24T20:36:16.995Z,99.9
2022-11-24T20:38:18.325Z,99.9
2022-11-24T20:40:19.708Z,99.9
2022-11-24T20:42:21.050Z,99.9
2022-11-24T20:44:25.695Z,99.9
2022-11-24T20:46:27.084Z,99.9
2022-11-24T20:48:28.810Z,99.9
2022-11-24T20:52:31.534Z,99.9
2022-11-24T20:54:33.471Z,99.9
2022-11-24T20:56:34.268Z,99.9
2022-11-24T20:58:38.932Z,99.9
2022-11-24T21:06:44.345Z,99.9
2022-11-24T21:08:45.699Z,99.9
2022-11-24T21:10:47.081Z,99.9
2022-11-24T21:12:51.761Z,99.9
2022-11-24T21:14:53.138Z,99.9
2022-11-24T21:16:54.574Z,99.9
2022-11-24T21:17:56.794Z,99.9
2022-11-24T21:20:00.999Z,99.9
2022-11-24T21:21:59.525Z,99.9
2022-11-24T21:24:00.854Z,99.9
2022-11-24T21:26:06.249Z,99.9
2022-11-24T21:28:06.935Z,99.9
2022-11-24T21:30:08.275Z,99.9
2022-11-24T21:32:09.744Z,99.9
2022-11-24T21:34:11.025Z,99.9
2022-11-24T21:36:12.475Z,99.9
2022-11-24T21:38:13.732Z,99.9
2022-11-24T21:40:18.418Z,99.9
2022-11-24T21:42:19.756Z,99.9
2022-11-24T21:44:21.117Z,99.9
2022-11-24T21:50:25.186Z,99.9
2022-11-24T21:52:26.565Z,99.9
2022-11-24T21:54:31.231Z,99.9
2022-11-24T21:56:32.608Z,99.9
2022-11-24T21:58:33.934Z,99.9
2022-11-24T22:00:35.323Z,99.9
2022-11-24T22:02:36.837Z,99.9
2022-11-24T22:04:38.115Z,99.9
2022-11-24T22:06:39.445Z,99.9
2022-11-24T22:12:46.876Z,99.9
2022-11-24T22:13:49.203Z,99.9
2022-11-24T22:15:50.605Z,99.9
2022-11-24T22:17:52.000Z,99.9
2022-11-24T22:19:53.374Z,99.9
2022-11-24T22:21:58.012Z,99.9
2022-11-24T22:23:59.369Z,99.9
2022-11-24T22:26:00.957Z,99.9
2022-11-24T22:28:02.115Z,99.9
2022-11-24T22:30:03.498Z,99.9
2022-11-24T22:32:05.060Z,99.9
2022-11-24T22:34:06.228Z,99.9
2022-11-24T22:36:10.903Z,99.9
2022-11-24T22:38:12.271Z,99.9
2022-11-24T22:40:13.626Z,99.9
2022-11-24T22:48:19.149Z,99.9
2022-11-24T22:50:23.750Z,99.9
2022-11-24T22:52:25.152Z,99.9
2022-11-24T22:54:26.548Z,99.9
2022-11-24T22:56:27.918Z,99.9
2022-11-24T22:58:29.230Z,99.9
2022-11-24T23:00:30.603Z,99.9
2022-11-24T23:02:32.031Z,99.9
2022-11-24T23:04:36.889Z,99.9
2022-11-24T23:06:38.001Z,99.9
2022-11-24T23:08:39.347Z,99.9
2022-11-24T23:11:00.006Z,99.9
2022-11-24T23:13:01.361Z,99.9
2022-11-24T23:15:02.706Z,99.9
2022-11-24T23:17:07.390Z,99.9
2022-11-24T23:19:08.779Z,99.9
2022-11-24T23:21:10.133Z,99.9
2022-11-24T23:23:11.501Z,99.9
2022-11-24T23:25:12.905Z,99.9
2022-11-24T23:27:14.340Z,99.9
2022-11-24T23:29:15.678Z,99.9
2022-11-24T23:31:20.390Z,99.9
2022-11-24T23:33:21.709Z,99.9
2022-11-24T23:35:23.088Z,99.9
2022-11-24T23:37:39.300Z,99.9
2022-11-24T23:39:25.845Z,99.9
2022-11-24T23:41:27.204Z,99.9
2022-11-24T23:43:28.551Z,99.9
2022-11-24T23:45:33.309Z,99.9
2022-11-24T23:47:34.625Z,99.9
2022-11-24T23:51:37.344Z,99.9
